createdAt,value
2022-07-30T00:00:24.871Z,22.68
2022-07-30T00:01:24.211Z,22.67
2022-07-30T00:02:29.814Z,22.68
2022-07-30T00:03:34.916Z,22.70
2022-07-30T00:04:38.938Z,22.69
2022-07-30T00:05:42.970Z,22.71
2022-07-30T00:06:48.491Z,22.71
2022-07-30T00:07:56.344Z,22.70
2022-07-30T00:09:02.978Z,22.69
2022-07-30T00:10:06.625Z,22.69
2022-07-30T00:11:10.724Z,22.69
2022-07-30T00:12:14.639Z,22.64
2022-07-30T00:13:19.343Z,22.64
2022-07-30T00:14:23.477Z,22.61
2022-07-30T00:15:29.033Z,22.58
2022-07-30T00:16:34.375Z,22.58
2022-07-30T00:17:38.577Z,22.56
2022-07-30T00:18:45.824Z,22.52
2022-07-30T00:19:51.229Z,22.52
2022-07-30T00:21:20.323Z,22.54
2022-07-30T00:22:10.935Z,22.54
2022-07-30T00:23:19.940Z,22.54
2022-07-30T00:24:24.560Z,22.54
2022-07-30T00:25:31.563Z,22.55
2022-07-30T00:26:37.339Z,22.55
2022-07-30T00:27:41.443Z,22.55
2022-07-30T00:28:48.628Z,22.54
2022-07-30T00:29:55.594Z,22.54
2022-07-30T00:31:04.909Z,22.52
2022-07-30T00:32:09.193Z,22.50
2022-07-30T00:33:17.031Z,22.49
2022-07-30T00:34:22.600Z,22.48
2022-07-30T00:35:28.765Z,22.46
2022-07-30T00:36:36.283Z,22.44
2022-07-30T00:37:43.044Z,21.35
2022-07-30T00:38:47.243Z,22.39
2022-07-30T00:39:51.417Z,22.39
2022-07-30T00:40:55.648Z,22.36
2022-07-30T00:42:08.061Z,22.36
2022-07-30T00:43:17.698Z,22.36
2022-07-30T00:44:21.885Z,22.37
2022-07-30T00:45:27.708Z,22.37
2022-07-30T00:46:32.918Z,22.35
2022-07-30T00:47:37.852Z,22.33
2022-07-30T00:48:42.553Z,22.30
2022-07-30T00:49:47.013Z,22.30
2022-07-30T00:50:53.016Z,22.29
2022-07-30T00:51:57.339Z,22.29
2022-07-30T00:53:01.440Z,22.29
2022-07-30T00:54:09.312Z,22.30
2022-07-30T00:55:15.492Z,22.29
2022-07-30T00:56:23.979Z,22.29
2022-07-30T00:57:28.812Z,22.28
2022-07-30T00:58:34.575Z,22.28
2022-07-30T00:59:40.038Z,22.23
2022-07-30T01:00:46.877Z,22.23
2022-07-30T01:01:53.847Z,22.21
2022-07-30T01:03:03.265Z,22.18
2022-07-30T01:04:09.224Z,22.18
2022-07-30T01:05:13.924Z,22.19
2022-07-30T01:06:18.497Z,22.18
2022-07-30T01:07:24.088Z,22.18
2022-07-30T01:08:28.324Z,22.18
2022-07-30T01:09:32.362Z,22.16
2022-07-30T01:10:37.030Z,22.18
2022-07-30T01:11:42.549Z,22.16
2022-07-30T01:12:46.863Z,22.13
2022-07-30T01:13:53.468Z,22.09
2022-07-30T01:15:00.042Z,22.09
2022-07-30T01:16:04.657Z,22.04
2022-07-30T01:17:10.539Z,22.00
2022-07-30T01:18:16.277Z,22.00
2022-07-30T01:19:26.115Z,21.97
2022-07-30T01:20:34.115Z,21.95
2022-07-30T01:21:41.230Z,21.95
2022-07-30T01:23:10.514Z,21.94
2022-07-30T01:24:23.556Z,21.94
2022-07-30T01:25:44.308Z,21.92
2022-07-30T01:26:52.484Z,21.91
2022-07-30T01:28:06.690Z,21.91
2022-07-30T01:29:13.726Z,21.88
2022-07-30T01:30:22.033Z,21.88
2022-07-30T01:31:28.945Z,21.85
2022-07-30T01:32:36.136Z,21.83
2022-07-30T01:33:43.099Z,21.83
2022-07-30T01:34:50.386Z,21.80
2022-07-30T01:35:56.620Z,21.78
2022-07-30T01:37:05.247Z,21.77
2022-07-30T01:38:12.831Z,21.77
2022-07-30T01:39:19.700Z,21.76
2022-07-30T01:40:26.639Z,21.75
2022-07-30T01:41:34.850Z,21.74
2022-07-30T01:42:41.239Z,21.75
2022-07-30T01:43:48.603Z,21.75
2022-07-30T01:44:54.801Z,21.77
2022-07-30T01:46:00.450Z,21.77
2022-07-30T01:47:08.620Z,21.77
2022-07-30T01:48:15.121Z,21.74
2022-07-30T01:49:33.360Z,21.74
2022-07-30T01:50:31.097Z,21.70
2022-07-30T01:51:37.884Z,21.71
2022-07-30T01:52:49.091Z,21.71
2022-07-30T01:53:55.868Z,21.68
2022-07-30T01:55:02.472Z,21.66
2022-07-30T01:56:13.193Z,21.66
2022-07-30T01:57:22.285Z,21.65
2022-07-30T01:58:29.631Z,21.65
2022-07-30T01:59:35.987Z,21.65
2022-07-30T02:00:43.734Z,21.64
2022-07-30T02:01:48.308Z,21.64
2022-07-30T02:02:52.342Z,21.62
2022-07-30T02:03:57.943Z,21.62
2022-07-30T02:05:03.564Z,21.59
2022-07-30T02:06:12.112Z,21.59
2022-07-30T02:07:22.792Z,21.59
2022-07-30T02:08:38.922Z,21.58
2022-07-30T02:09:47.450Z,21.55
2022-07-30T02:11:00.166Z,21.56
2022-07-30T02:12:09.306Z,21.56
2022-07-30T02:13:15.404Z,21.55
2022-07-30T02:14:38.725Z,21.55
2022-07-30T02:16:00.761Z,21.53
2022-07-30T02:17:08.145Z,21.53
2022-07-30T02:18:23.743Z,21.52
2022-07-30T02:19:32.647Z,21.51
2022-07-30T02:20:38.468Z,21.51
2022-07-30T02:21:49.745Z,21.50
2022-07-30T02:22:53.547Z,21.50
2022-07-30T02:23:58.673Z,21.50
2022-07-30T02:25:05.600Z,21.51
2022-07-30T02:26:14.087Z,21.52
2022-07-30T02:27:26.492Z,21.52
2022-07-30T02:28:36.416Z,21.54
2022-07-30T02:29:40.959Z,21.53
2022-07-30T02:30:53.659Z,21.53
2022-07-30T02:32:00.349Z,21.58
2022-07-30T02:33:07.497Z,21.59
2022-07-30T02:34:14.210Z,21.59
2022-07-30T02:35:24.059Z,21.61
2022-07-30T02:36:32.112Z,21.61
2022-07-30T02:37:43.043Z,21.61
2022-07-30T02:38:44.306Z,21.61
2022-07-30T02:39:49.767Z,21.62
2022-07-30T02:40:56.838Z,21.62
2022-07-30T02:42:02.881Z,21.62
2022-07-30T02:43:06.866Z,21.62
2022-07-30T02:44:12.222Z,21.62
2022-07-30T02:45:18.572Z,21.61
2022-07-30T02:46:25.329Z,21.61
2022-07-30T02:47:30.088Z,21.59
2022-07-30T02:48:36.180Z,21.60
2022-07-30T02:49:42.323Z,21.58
2022-07-30T02:50:48.356Z,21.58
2022-07-30T02:51:53.575Z,21.61
2022-07-30T02:53:00.823Z,21.61
2022-07-30T02:54:05.778Z,21.55
2022-07-30T02:55:12.466Z,21.55
2022-07-30T02:56:19.725Z,21.52
2022-07-30T02:57:25.076Z,21.52
2022-07-30T02:58:31.108Z,21.49
2022-07-30T02:59:40.071Z,21.49
2022-07-30T03:00:45.805Z,21.48
2022-07-30T03:01:51.235Z,21.46
2022-07-30T03:02:58.427Z,21.46
2022-07-30T03:04:05.046Z,21.42
2022-07-30T03:05:09.841Z,21.40
2022-07-30T03:06:17.009Z,21.40
2022-07-30T03:07:22.257Z,21.39
2022-07-30T03:08:28.219Z,21.40
2022-07-30T03:09:52.032Z,21.40
2022-07-30T03:10:41.699Z,21.40
2022-07-30T03:11:48.370Z,21.40
2022-07-30T03:12:52.984Z,21.39
2022-07-30T03:13:58.799Z,21.40
2022-07-30T03:15:06.314Z,21.38
2022-07-30T03:16:11.252Z,21.39
2022-07-30T03:17:17.322Z,21.39
2022-07-30T03:18:22.438Z,21.42
2022-07-30T03:19:29.445Z,21.44
2022-07-30T03:20:36.112Z,21.44
2022-07-30T03:21:43.543Z,21.47
2022-07-30T03:22:51.970Z,21.48
2022-07-30T03:23:58.732Z,21.41
2022-07-30T03:25:05.230Z,21.40
2022-07-30T03:26:11.449Z,21.40
2022-07-30T03:27:16.509Z,21.39
2022-07-30T03:28:22.544Z,21.38
2022-07-30T03:29:29.723Z,21.39
2022-07-30T03:30:35.542Z,21.38
2022-07-30T03:31:41.115Z,21.41
2022-07-30T03:32:45.680Z,21.42
2022-07-30T03:33:52.660Z,21.45
2022-07-30T03:35:03.010Z,21.45
2022-07-30T03:36:07.199Z,21.51
2022-07-30T03:37:12.327Z,21.53
2022-07-30T03:38:17.353Z,21.55
2022-07-30T03:39:22.690Z,21.56
2022-07-30T03:40:31.560Z,21.60
2022-07-30T03:41:37.574Z,21.60
2022-07-30T03:42:44.196Z,21.61
2022-07-30T03:43:55.945Z,21.64
2022-07-30T03:44:55.842Z,21.65
2022-07-30T03:46:01.287Z,21.65
2022-07-30T03:47:07.413Z,21.69
2022-07-30T03:48:13.392Z,21.69
2022-07-30T03:49:18.637Z,21.73
2022-07-30T03:50:24.440Z,21.73
2022-07-30T03:51:33.132Z,21.75
2022-07-30T03:52:40.895Z,21.75
2022-07-30T03:53:59.158Z,21.74
2022-07-30T03:54:52.693Z,20.91
2022-07-30T03:55:57.244Z,21.74
2022-07-30T03:57:20.374Z,21.74
2022-07-30T03:58:18.935Z,21.72
2022-07-30T03:59:20.028Z,21.74
2022-07-30T04:00:26.721Z,21.73
2022-07-30T04:01:30.955Z,21.73
2022-07-30T04:02:43.328Z,21.74
2022-07-30T04:03:48.931Z,21.74
2022-07-30T04:04:53.115Z,21.75
2022-07-30T04:05:58.797Z,21.59
2022-07-30T04:07:04.525Z,21.80
2022-07-30T04:08:08.844Z,21.80
2022-07-30T04:09:13.703Z,21.86
2022-07-30T04:10:18.232Z,21.90
2022-07-30T04:11:41.536Z,21.90
2022-07-30T04:12:29.589Z,21.90
2022-07-30T04:13:33.768Z,21.94
2022-07-30T04:14:43.688Z,21.95
2022-07-30T04:16:35.555Z,21.95
2022-07-30T04:17:07.829Z,21.98
2022-07-30T04:18:13.510Z,21.98
2022-07-30T04:19:26.210Z,22.00
2022-07-30T04:20:37.742Z,22.08
2022-07-30T04:21:42.785Z,22.08
2022-07-30T04:22:48.195Z,22.10
2022-07-30T04:24:03.113Z,22.18
2022-07-30T04:25:04.667Z,22.18
2022-07-30T04:26:09.820Z,22.29
2022-07-30T04:27:15.118Z,22.29
2022-07-30T04:28:21.154Z,22.38
2022-07-30T04:29:25.310Z,22.38
2022-07-30T04:30:31.743Z,22.49
2022-07-30T04:31:41.097Z,22.52
2022-07-30T04:32:42.586Z,22.52
2022-07-30T04:33:47.208Z,22.63
2022-07-30T04:34:53.641Z,22.69
2022-07-30T04:35:57.629Z,22.69
2022-07-30T04:37:02.422Z,22.74
2022-07-30T04:38:06.899Z,22.82
2022-07-30T04:39:12.047Z,22.89
2022-07-30T04:40:16.522Z,22.91
2022-07-30T04:41:20.581Z,22.95
2022-07-30T04:42:26.894Z,22.98
2022-07-30T04:43:30.907Z,23.05
2022-07-30T04:44:35.346Z,23.05
2022-07-30T04:45:40.892Z,23.12
2022-07-30T04:46:45.059Z,23.16
2022-07-30T04:47:51.365Z,23.22
2022-07-30T04:48:57.300Z,23.27
2022-07-30T04:50:02.520Z,23.32
2022-07-30T04:51:09.496Z,23.32
2022-07-30T04:52:14.821Z,23.42
2022-07-30T04:53:19.834Z,23.47
2022-07-30T04:54:25.656Z,23.52
2022-07-30T04:55:33.991Z,23.52
2022-07-30T04:56:39.493Z,23.62
2022-07-30T04:57:46.921Z,23.62
2022-07-30T04:58:52.423Z,23.73
2022-07-30T04:59:56.667Z,23.78
2022-07-30T05:01:02.621Z,23.83
2022-07-30T05:02:09.440Z,23.89
2022-07-30T05:03:16.658Z,23.94
2022-07-30T05:04:24.910Z,24.16
2022-07-30T05:05:30.729Z,24.42
2022-07-30T05:06:35.717Z,24.42
2022-07-30T05:07:40.431Z,24.53
2022-07-30T05:08:45.952Z,24.62
2022-07-30T05:09:50.454Z,24.65
2022-07-30T05:10:54.928Z,24.67
2022-07-30T05:11:59.540Z,24.67
2022-07-30T05:13:03.517Z,24.67
2022-07-30T05:14:09.267Z,24.69
2022-07-30T05:15:13.355Z,24.69
2022-07-30T05:16:24.673Z,24.83
2022-07-30T05:17:30.100Z,25.02
2022-07-30T05:18:35.594Z,25.82
2022-07-30T05:19:39.632Z,25.82
2022-07-30T05:20:43.821Z,26.21
2022-07-30T05:21:49.393Z,26.56
2022-07-30T05:22:54.675Z,27.29
2022-07-30T05:23:58.735Z,27.29
2022-07-30T05:25:02.877Z,27.62
2022-07-30T05:27:20.129Z,28.22
2022-07-30T05:28:30.625Z,28.47
2022-07-30T05:29:41.705Z,28.66
2022-07-30T05:32:07.795Z,29.28
2022-07-30T05:33:15.886Z,29.42
2022-07-30T05:34:21.551Z,29.42
2022-07-30T05:35:27.113Z,29.57
2022-07-30T05:36:34.409Z,29.90
2022-07-30T05:37:46.454Z,29.90
2022-07-30T05:38:51.080Z,30.02
2022-07-30T05:39:58.913Z,30.29
2022-07-30T05:41:02.599Z,30.29
2022-07-30T05:42:06.786Z,30.37
2022-07-30T05:43:14.016Z,30.46
2022-07-30T05:44:22.097Z,30.57
2022-07-30T05:45:23.865Z,30.57
2022-07-30T05:46:29.597Z,30.69
2022-07-30T05:47:47.895Z,30.69
2022-07-30T05:48:45.449Z,30.78
2022-07-30T05:49:54.090Z,30.83
2022-07-30T05:50:58.626Z,30.83
2022-07-30T05:52:10.201Z,30.88
2022-07-30T05:54:27.934Z,31.07
2022-07-30T05:55:30.112Z,31.08
2022-07-30T05:56:36.128Z,31.08
2022-07-30T05:57:42.528Z,31.15
2022-07-30T05:58:50.906Z,31.18
2022-07-30T05:59:55.709Z,31.21
2022-07-30T06:01:00.174Z,31.25
2022-07-30T06:02:07.172Z,31.26
2022-07-30T06:03:18.255Z,31.29
2022-07-30T06:04:19.142Z,31.29
2022-07-30T06:05:27.921Z,31.31
2022-07-30T06:06:32.560Z,31.31
2022-07-30T06:07:36.880Z,31.36
2022-07-30T06:08:42.651Z,31.38
2022-07-30T06:09:46.997Z,31.50
2022-07-30T06:10:58.176Z,31.47
2022-07-30T06:11:58.859Z,31.47
2022-07-30T06:13:07.539Z,31.50
2022-07-30T06:14:15.851Z,31.50
2022-07-30T06:15:23.277Z,31.57
2022-07-30T06:16:24.505Z,31.59
2022-07-30T06:17:30.337Z,31.67
2022-07-30T06:18:34.573Z,31.67
2022-07-30T06:19:38.953Z,31.74
2022-07-30T06:20:43.055Z,31.71
2022-07-30T06:22:05.763Z,31.78
2022-07-30T06:22:52.853Z,31.78
2022-07-30T06:23:57.147Z,31.77
2022-07-30T06:25:03.109Z,31.83
2022-07-30T06:26:07.036Z,31.88
2022-07-30T06:27:11.171Z,31.92
2022-07-30T06:28:36.561Z,31.92
2022-07-30T06:29:22.164Z,31.95
2022-07-30T06:30:30.235Z,32.05
2022-07-30T06:31:32.709Z,32.05
2022-07-30T06:32:36.927Z,32.11
2022-07-30T06:33:40.995Z,32.12
2022-07-30T06:34:45.125Z,32.12
2022-07-30T06:35:49.201Z,32.13
2022-07-30T06:36:53.315Z,32.15
2022-07-30T06:38:01.802Z,32.35
2022-07-30T06:39:03.259Z,32.42
2022-07-30T06:40:08.156Z,32.46
2022-07-30T06:41:12.225Z,32.46
2022-07-30T06:42:16.972Z,32.55
2022-07-30T06:43:21.074Z,32.67
2022-07-30T06:44:25.154Z,32.74
2022-07-30T06:45:32.302Z,32.81
2022-07-30T06:46:36.621Z,32.81
2022-07-30T06:47:43.823Z,32.93
2022-07-30T06:48:47.951Z,33.03
2022-07-30T06:49:52.531Z,33.03
2022-07-30T06:50:56.589Z,33.06
2022-07-30T06:52:00.794Z,33.12
2022-07-30T06:53:09.983Z,33.17
2022-07-30T06:54:17.194Z,33.17
2022-07-30T06:55:16.642Z,33.21
2022-07-30T06:56:21.633Z,33.21
2022-07-30T06:57:25.745Z,33.27
2022-07-30T06:58:35.299Z,33.27
2022-07-30T06:59:57.317Z,33.18
2022-07-30T07:00:51.298Z,33.21
2022-07-30T07:01:55.133Z,33.28
2022-07-30T07:02:59.476Z,33.32
2022-07-30T07:04:05.125Z,33.32
2022-07-30T07:05:23.716Z,31.20
2022-07-30T07:06:22.043Z,33.33
2022-07-30T07:07:41.348Z,33.30
2022-07-30T07:08:34.870Z,33.23
2022-07-30T07:09:39.020Z,33.23
2022-07-30T07:10:45.233Z,33.22
2022-07-30T07:11:49.202Z,33.11
2022-07-30T07:12:54.689Z,33.11
2022-07-30T07:14:04.014Z,32.93
2022-07-30T07:15:04.744Z,32.93
2022-07-30T07:16:10.471Z,32.90
2022-07-30T07:17:14.627Z,32.76
2022-07-30T07:18:21.123Z,32.76
2022-07-30T07:20:01.493Z,32.69
2022-07-30T07:20:31.333Z,32.69
2022-07-30T07:21:35.499Z,32.67
2022-07-30T07:22:42.645Z,32.68
2022-07-30T07:23:48.581Z,32.62
2022-07-30T07:24:52.576Z,32.63
2022-07-30T07:25:57.115Z,32.58
2022-07-30T07:27:03.940Z,32.58
2022-07-30T07:28:11.759Z,32.60
2022-07-30T07:32:05.242Z,32.58
2022-07-30T07:32:17.523Z,32.59
2022-07-30T07:33:19.631Z,32.55
2022-07-30T07:34:23.753Z,32.52
2022-07-30T07:35:27.782Z,32.51
2022-07-30T07:36:35.094Z,32.50
2022-07-30T07:37:39.231Z,32.50
2022-07-30T07:38:47.123Z,32.48
2022-07-30T07:39:51.241Z,32.48
2022-07-30T07:40:55.352Z,32.48
2022-07-30T07:41:59.404Z,32.48
2022-07-30T07:43:03.439Z,32.48
2022-07-30T07:44:07.619Z,32.53
2022-07-30T07:45:11.973Z,32.48
2022-07-30T07:46:33.117Z,32.47
2022-07-30T07:47:29.883Z,32.44
2022-07-30T07:48:35.272Z,32.45
2022-07-30T07:49:42.496Z,32.48
2022-07-30T07:50:49.679Z,32.51
2022-07-30T07:51:54.798Z,32.51
2022-07-30T07:53:00.443Z,32.54
2022-07-30T07:54:21.031Z,32.54
2022-07-30T07:55:12.024Z,32.54
2022-07-30T07:56:18.819Z,32.50
2022-07-30T07:57:23.005Z,32.44
2022-07-30T07:58:29.492Z,32.34
2022-07-30T07:59:40.409Z,32.31
2022-07-30T08:00:42.828Z,32.23
2022-07-30T08:01:46.899Z,32.15
2022-07-30T08:02:51.935Z,32.15
2022-07-30T08:03:56.000Z,32.18
2022-07-30T08:05:00.010Z,32.18
2022-07-30T08:06:06.412Z,32.11
2022-07-30T08:07:09.758Z,32.10
2022-07-30T08:08:13.867Z,32.06
2022-07-30T08:09:18.028Z,32.06
2022-07-30T08:10:23.810Z,32.06
2022-07-30T08:11:28.628Z,32.08
2022-07-30T08:12:32.617Z,32.12
2022-07-30T08:13:49.001Z,32.11
2022-07-30T08:14:43.868Z,32.19
2022-07-30T08:15:47.851Z,32.21
2022-07-30T08:16:53.510Z,32.24
2022-07-30T08:17:58.083Z,32.24
2022-07-30T08:19:02.174Z,32.24
2022-07-30T08:20:09.859Z,32.32
2022-07-30T08:21:15.758Z,32.32
2022-07-30T08:22:24.035Z,32.35
2022-07-30T08:23:28.960Z,32.40
2022-07-30T08:24:33.206Z,32.40
2022-07-30T08:25:37.345Z,32.36
2022-07-30T08:26:42.968Z,32.38
2022-07-30T08:27:47.011Z,32.38
2022-07-30T08:28:54.397Z,32.14
2022-07-30T08:29:56.834Z,32.07
2022-07-30T08:31:02.835Z,32.06
2022-07-30T08:32:07.251Z,32.06
2022-07-30T08:33:19.743Z,31.99
2022-07-30T08:34:18.676Z,31.99
2022-07-30T08:35:25.659Z,31.93
2022-07-30T08:36:30.324Z,31.85
2022-07-30T08:37:34.473Z,31.85
2022-07-30T08:38:40.178Z,31.84
2022-07-30T08:39:47.408Z,31.82
2022-07-30T08:40:51.608Z,31.79
2022-07-30T08:41:55.955Z,31.85
2022-07-30T08:43:02.721Z,31.88
2022-07-30T08:44:12.543Z,31.83
2022-07-30T08:45:17.435Z,31.84
2022-07-30T08:46:24.704Z,31.84
2022-07-30T08:47:36.571Z,31.90
2022-07-30T08:48:44.603Z,31.96
2022-07-30T08:49:49.313Z,32.01
2022-07-30T08:50:54.317Z,32.07
2022-07-30T08:51:58.813Z,32.09
2022-07-30T08:53:04.070Z,32.11
2022-07-30T08:54:08.257Z,32.20
2022-07-30T08:55:12.430Z,32.24
2022-07-30T08:56:18.419Z,32.25
2022-07-30T08:57:26.947Z,32.25
2022-07-30T08:58:33.674Z,32.18
2022-07-30T08:59:59.523Z,32.16
2022-07-30T09:00:44.554Z,32.20
2022-07-30T09:01:48.796Z,32.22
2022-07-30T09:02:52.928Z,32.22
2022-07-30T09:03:58.160Z,32.29
2022-07-30T09:05:02.369Z,32.29
2022-07-30T09:06:06.601Z,32.31
2022-07-30T09:07:10.567Z,32.28
2022-07-30T09:08:17.779Z,32.38
2022-07-30T09:09:24.078Z,32.38
2022-07-30T09:10:29.729Z,32.38
2022-07-30T09:11:35.767Z,32.32
2022-07-30T09:12:42.280Z,32.20
2022-07-30T09:13:46.398Z,32.16
2022-07-30T09:15:08.312Z,32.16
2022-07-30T09:16:26.770Z,32.21
2022-07-30T09:17:47.776Z,32.22
2022-07-30T09:18:53.092Z,32.22
2022-07-30T09:20:04.454Z,32.31
2022-07-30T09:21:19.780Z,32.32
2022-07-30T09:22:23.835Z,32.29
2022-07-30T09:23:29.525Z,32.34
2022-07-30T09:24:39.356Z,32.34
2022-07-30T09:25:55.130Z,32.38
2022-07-30T09:27:03.805Z,32.39
2022-07-30T09:28:16.173Z,32.38
2022-07-30T09:29:19.742Z,32.42
2022-07-30T09:30:24.033Z,32.33
2022-07-30T09:32:50.412Z,32.12
2022-07-30T09:33:54.517Z,32.12
2022-07-30T09:35:01.499Z,32.22
2022-07-30T09:36:09.772Z,32.18
2022-07-30T09:37:16.773Z,32.14
2022-07-30T09:38:22.302Z,32.05
2022-07-30T09:39:34.083Z,32.05
2022-07-30T09:40:39.718Z,32.08
2022-07-30T09:41:45.458Z,32.04
2022-07-30T09:42:51.002Z,31.96
2022-07-30T09:43:55.056Z,32.00
2022-07-30T09:45:11.149Z,32.00
2022-07-30T09:46:17.506Z,31.92
2022-07-30T09:47:37.513Z,31.93
2022-07-30T09:48:45.421Z,31.91
2022-07-30T09:49:53.652Z,31.88
2022-07-30T09:50:57.931Z,31.88
2022-07-30T09:52:02.092Z,31.90
2022-07-30T09:53:09.313Z,31.91
2022-07-30T09:54:13.517Z,31.99
2022-07-30T09:55:34.783Z,32.06
2022-07-30T09:56:37.867Z,32.11
2022-07-30T09:58:00.199Z,32.11
2022-07-30T09:59:18.646Z,32.25
2022-07-30T10:00:24.158Z,32.26
2022-07-30T10:01:49.931Z,32.26
2022-07-30T10:02:35.115Z,32.38
2022-07-30T10:03:42.612Z,32.46
2022-07-30T10:04:48.760Z,32.39
2022-07-30T10:05:58.376Z,32.39
2022-07-30T10:07:06.847Z,32.43
2022-07-30T10:08:18.977Z,32.38
2022-07-30T10:09:31.917Z,32.40
2022-07-30T10:10:46.845Z,31.73
2022-07-30T10:11:42.339Z,32.54
2022-07-30T10:12:48.092Z,32.54
2022-07-30T10:13:54.908Z,32.69
2022-07-30T10:15:01.003Z,32.69
2022-07-30T10:16:06.659Z,32.70
2022-07-30T10:17:12.896Z,32.70
2022-07-30T10:18:18.202Z,32.74
2022-07-30T10:19:39.843Z,32.74
2022-07-30T10:20:30.564Z,32.88
2022-07-30T10:21:36.734Z,32.88
2022-07-30T10:22:43.953Z,32.99
2022-07-30T10:23:51.633Z,32.93
2022-07-30T10:24:56.028Z,32.93
2022-07-30T10:26:03.644Z,32.98
2022-07-30T10:27:09.712Z,32.86
2022-07-30T10:28:17.363Z,32.86
2022-07-30T10:29:34.000Z,32.68
2022-07-30T10:30:33.314Z,32.68
2022-07-30T10:31:46.835Z,32.74
2022-07-30T10:32:46.496Z,32.73
2022-07-30T10:33:53.012Z,32.73
2022-07-30T10:35:01.242Z,32.80
2022-07-30T10:36:05.494Z,32.80
2022-07-30T10:37:12.982Z,32.72
2022-07-30T10:38:19.863Z,32.78
2022-07-30T10:39:29.689Z,32.76
2022-07-30T10:40:40.091Z,32.76
2022-07-30T10:41:54.135Z,32.81
2022-07-30T10:43:18.064Z,32.81
2022-07-30T10:44:27.044Z,32.84
2022-07-30T10:45:50.029Z,32.81
2022-07-30T10:47:00.307Z,32.81
2022-07-30T10:48:06.869Z,32.83
2022-07-30T10:49:18.625Z,32.68
2022-07-30T10:50:25.694Z,32.66
2022-07-30T10:51:46.517Z,32.47
2022-07-30T10:53:01.030Z,32.43
2022-07-30T10:54:05.221Z,32.27
2022-07-30T10:55:15.831Z,32.31
2022-07-30T10:56:25.793Z,32.31
2022-07-30T10:57:32.643Z,32.27
2022-07-30T10:58:38.205Z,32.17
2022-07-30T10:59:59.869Z,32.17
2022-07-30T11:01:04.865Z,32.12
2022-07-30T11:02:10.780Z,32.12
2022-07-30T11:03:40.734Z,32.06
2022-07-30T11:04:30.639Z,32.01
2022-07-30T11:05:45.282Z,32.00
2022-07-30T11:06:42.231Z,31.93
2022-07-30T11:07:47.194Z,31.84
2022-07-30T11:08:52.126Z,31.84
2022-07-30T11:10:11.890Z,31.83
2022-07-30T11:12:01.978Z,31.83
2022-07-30T11:12:47.063Z,31.81
2022-07-30T11:13:54.591Z,31.79
2022-07-30T11:15:06.804Z,31.83
2022-07-30T11:16:07.500Z,31.80
2022-07-30T11:17:12.498Z,31.81
2022-07-30T11:18:16.830Z,31.83
2022-07-30T11:19:55.904Z,31.83
2022-07-30T11:20:32.773Z,31.83
2022-07-30T11:21:37.022Z,31.86
2022-07-30T11:22:42.032Z,31.97
2022-07-30T11:23:47.140Z,31.97
2022-07-30T11:24:53.460Z,32.03
2022-07-30T11:25:59.255Z,32.09
2022-07-30T11:27:04.261Z,32.12
2022-07-30T11:28:08.311Z,32.11
2022-07-30T11:29:51.225Z,32.16
2022-07-30T11:30:44.438Z,32.16
2022-07-30T11:31:56.873Z,32.15
2022-07-30T11:33:07.684Z,32.15
2022-07-30T11:34:25.810Z,32.13
2022-07-30T11:35:35.212Z,32.13
2022-07-30T11:36:40.195Z,32.06
2022-07-30T11:38:19.025Z,32.02
2022-07-30T11:39:21.918Z,31.98
2022-07-30T11:40:31.256Z,32.01
2022-07-30T11:41:35.397Z,32.03
2022-07-30T11:42:41.822Z,32.05
2022-07-30T11:43:45.955Z,32.05
2022-07-30T11:44:50.294Z,32.07
2022-07-30T11:46:06.407Z,31.88
2022-07-30T11:47:16.756Z,31.88
2022-07-30T11:48:20.103Z,31.90
2022-07-30T11:49:24.695Z,31.93
2022-07-30T11:50:35.187Z,31.94
2022-07-30T11:51:44.560Z,31.97
2022-07-30T11:52:56.908Z,31.97
2022-07-30T11:54:07.971Z,31.80
2022-07-30T11:55:19.079Z,31.78
2022-07-30T11:56:22.405Z,31.78
2022-07-30T11:57:42.594Z,31.77
2022-07-30T11:58:48.298Z,31.74
2022-07-30T11:59:58.002Z,31.75
2022-07-30T12:01:09.547Z,31.75
2022-07-30T12:02:10.567Z,31.75
2022-07-30T12:03:17.177Z,31.58
2022-07-30T12:04:21.312Z,31.54
2022-07-30T12:05:38.587Z,31.57
2022-07-30T12:06:33.640Z,31.55
2022-07-30T12:07:38.010Z,31.50
2022-07-30T12:08:45.895Z,31.50
2022-07-30T12:09:49.653Z,31.52
2022-07-30T12:11:01.670Z,31.68
2022-07-30T12:12:11.103Z,31.68
2022-07-30T12:13:17.705Z,31.74
2022-07-30T12:14:21.830Z,31.74
2022-07-30T12:15:34.649Z,31.91
2022-07-30T12:16:40.709Z,31.91
2022-07-30T12:17:46.245Z,32.00
2022-07-30T12:18:50.252Z,32.06
2022-07-30T12:19:54.425Z,32.11
2022-07-30T12:21:04.509Z,32.15
2022-07-30T12:22:08.615Z,32.15
2022-07-30T12:23:14.076Z,32.21
2022-07-30T12:24:23.052Z,31.99
2022-07-30T12:25:26.875Z,31.82
2022-07-30T12:26:34.055Z,31.64
2022-07-30T12:27:38.542Z,31.64
2022-07-30T12:28:42.802Z,31.27
2022-07-30T12:29:46.919Z,31.27
2022-07-30T12:30:53.821Z,31.18
2022-07-30T12:31:59.386Z,31.03
2022-07-30T12:33:03.489Z,30.90
2022-07-30T12:34:24.642Z,30.80
2022-07-30T12:35:42.878Z,30.70
2022-07-30T12:36:48.644Z,30.62
2022-07-30T12:38:38.280Z,30.62
2022-07-30T12:39:32.049Z,30.61
2022-07-30T12:40:55.024Z,30.55
2022-07-30T12:41:59.191Z,30.48
2022-07-30T12:43:03.496Z,30.48
2022-07-30T12:44:09.333Z,30.51
2022-07-30T12:45:16.376Z,30.51
2022-07-30T12:46:24.984Z,30.42
2022-07-30T12:47:31.027Z,30.46
2022-07-30T12:48:36.752Z,30.53
2022-07-30T12:49:48.982Z,30.48
2022-07-30T12:50:48.425Z,30.48
2022-07-30T12:51:59.866Z,30.55
2022-07-30T12:52:59.985Z,30.55
2022-07-30T12:54:15.617Z,30.48
2022-07-30T12:56:51.745Z,30.54
2022-07-30T12:57:11.329Z,30.48
2022-07-30T12:58:08.977Z,30.56
2022-07-30T12:59:23.074Z,30.56
2022-07-30T13:00:34.258Z,30.57
2022-07-30T13:01:46.384Z,30.57
2022-07-30T13:02:53.910Z,30.60
2022-07-30T13:04:02.468Z,30.70
2022-07-30T13:05:10.994Z,30.70
2022-07-30T13:06:22.383Z,30.72
2022-07-30T13:07:29.514Z,30.74
2022-07-30T13:08:54.076Z,30.74
2022-07-30T13:10:13.037Z,30.74
2022-07-30T13:11:19.278Z,30.75
2022-07-30T13:12:23.389Z,30.65
2022-07-30T13:13:29.165Z,30.65
2022-07-30T13:14:36.072Z,30.65
2022-07-30T13:15:40.285Z,29.06
2022-07-30T13:16:46.133Z,30.70
2022-07-30T13:17:50.525Z,30.71
2022-07-30T13:18:54.524Z,30.79
2022-07-30T13:20:00.254Z,30.79
2022-07-30T13:21:07.572Z,30.80
2022-07-30T13:22:11.609Z,30.82
2022-07-30T13:23:15.646Z,30.84
2022-07-30T13:24:21.090Z,30.84
2022-07-30T13:27:18.647Z,30.82
2022-07-30T13:28:15.045Z,30.78
2022-07-30T13:29:20.680Z,30.78
2022-07-30T13:30:26.381Z,30.78
2022-07-30T13:31:43.212Z,30.59
2022-07-30T13:32:36.161Z,30.64
2022-07-30T13:33:40.668Z,30.64
2022-07-30T13:34:44.843Z,30.64
2022-07-30T13:35:48.882Z,30.69
2022-07-30T13:36:53.221Z,30.72
2022-07-30T13:37:59.220Z,30.72
2022-07-30T13:39:03.136Z,30.62
2022-07-30T13:40:08.279Z,30.52
2022-07-30T13:41:13.283Z,30.54
2022-07-30T13:42:18.987Z,30.54
2022-07-30T13:43:25.137Z,30.52
2022-07-30T13:44:29.270Z,30.52
2022-07-30T13:45:34.572Z,30.45
2022-07-30T13:46:41.332Z,30.30
2022-07-30T13:47:49.544Z,30.32
2022-07-30T13:49:05.071Z,30.26
2022-07-30T13:50:11.003Z,30.17
2022-07-30T13:51:18.242Z,30.17
2022-07-30T13:52:36.085Z,30.17
2022-07-30T13:53:33.866Z,30.10
2022-07-30T13:54:37.990Z,30.14
2022-07-30T13:55:42.153Z,30.14
2022-07-30T13:56:46.307Z,30.14
2022-07-30T13:57:52.629Z,30.16
2022-07-30T13:58:58.262Z,30.15
2022-07-30T14:00:02.746Z,30.20
2022-07-30T14:01:08.511Z,30.29
2022-07-30T14:02:14.225Z,30.29
2022-07-30T14:03:21.381Z,30.36
2022-07-30T14:04:25.562Z,30.36
2022-07-30T14:05:29.930Z,30.34
2022-07-30T14:06:34.466Z,30.34
2022-07-30T14:07:39.739Z,30.28
2022-07-30T14:08:45.332Z,30.30
2022-07-30T14:09:54.406Z,30.30
2022-07-30T14:10:56.943Z,30.29
2022-07-30T14:12:01.093Z,30.28
2022-07-30T14:13:06.470Z,30.32
2022-07-30T14:14:12.086Z,30.35
2022-07-30T14:15:18.010Z,30.35
2022-07-30T14:16:44.309Z,30.34
2022-07-30T14:17:32.644Z,30.30
2022-07-30T14:18:38.303Z,30.29
2022-07-30T14:19:44.346Z,30.27
2022-07-30T14:20:48.885Z,30.23
2022-07-30T14:21:54.133Z,30.23
2022-07-30T14:23:02.703Z,30.23
2022-07-30T14:24:07.931Z,30.18
2022-07-30T14:25:14.247Z,30.15
2022-07-30T14:26:20.099Z,30.12
2022-07-30T14:27:24.067Z,30.08
2022-07-30T14:28:28.213Z,28.77
2022-07-30T14:29:32.290Z,28.77
2022-07-30T14:30:37.127Z,29.93